NCAR-RAP Real-Time Weather Data

Output produced by METARs form (10 April 2020  07:19 UTC)
found at http://weather.rap.ucar.edu/surface/
 
KDDC 100652Z AUTO 07010KT 10SM CLR 03/M08 A3018 RMK AO2 SLP220 T00331083
KDDC 100552Z AUTO 07012G21KT 10SM CLR 05/M08 A3018 RMK AO2 SLP215 T00501078 10150 20039 401720022 53014
KDDC 100452Z AUTO 05007KT 10SM CLR 06/M03 A3015 RMK AO2 SLP207 T00561033
KDDC 100352Z AUTO 07006KT 10SM OVC070 09/M03 A3015 RMK AO2 SLP204 T00891028
KDDC 100252Z AUTO 05006KT 10SM OVC065 10/M02 A3013 RMK AO2 SLP200 T01001022 53017
KDDC 100152Z AUTO 05006KT 10SM OVC065 11/M02 A3010 RMK AO2 SLP191 T01111022
KDDC 100052Z AUTO 04004KT 10SM OVC065 14/M03 A3009 RMK AO2 SLP187 T01441033
KDDC 092352Z AUTO 04009KT 10SM BKN065 15/M04 A3008 RMK AO2 SLP184 T01501044 10172 20144 55009
KDDC 092252Z AUTO 01012KT 10SM CLR 17/M03 A3007 RMK AO2 SLP180 T01671033
KDDC 092152Z AUTO 01012G20KT 10SM CLR 17/M02 A3008 RMK AO2 SLP183 T01721022
KDDC 092052Z AUTO 03009KT 10SM CLR 16/M03 A3011 RMK AO2 SLP192 T01561028 58018
KDDC 091952Z AUTO 04012KT 10SM CLR 16/M03 A3013 RMK AO2 SLP197 T01561028
KDDC 091852Z AUTO 01008KT 330V040 10SM CLR 14/M02 A3015 RMK AO2 SLP203 T01441022
KDDC 091752Z AUTO 02009G18KT 10SM CLR 16/M01 A3017 RMK AO2 SLP207 T01561006 10156 20022 50001
KDDC 091652Z AUTO 05009KT 10SM CLR 13/M02 A3018 RMK AO2 SLP213 T01331017
KDDC 091552Z AUTO 05008KT 10SM CLR 12/M02 A3018 RMK AO2 SLP211 T01221022
KDDC 091452Z AUTO VRB04KT 10SM CLR 09/00 A3016 RMK AO2 SLP210 T00940000 51017
KDDC 091352Z AUTO 34003KT 10SM CLR 06/01 A3016 RMK AO2 SLP210 T00610011
KDDC 091252Z AUTO 33003KT 9SM CLR 03/00 A3015 RMK AO2 SLP203 T00330000
KDDC 091152Z AUTO 02006KT 10SM CLR 03/00 A3011 RMK AO2 SLP186 T00280000 10094 20022 51015
KDDC 091052Z AUTO 01006KT 10SM CLR 03/00 A3010 RMK AO2 SLP180 T00280000
KDDC 090952Z AUTO 03007KT 10SM CLR 04/00 A3008 RMK AO2 SLP171 T00390000
KDDC 090852Z AUTO 05007KT 10SM CLR 06/01 A3006 RMK AO2 SLP163 T00560006 53009